sensor_id;sensor_type;location;lat;lon;timestamp;P1;durP1;ratioP1;P2;durP2;ratioP2
8488;SDS011;4281;45.772;12.852;2024-03-23T00:54:24;9.10;;;8.20;;
8488;SDS011;4281;45.772;12.852;2024-03-23T00:56:51;8.90;;;8.13;;
8488;SDS011;4281;45.772;12.852;2024-03-23T00:59:18;9.17;;;8.33;;
8488;SDS011;4281;45.772;12.852;2024-03-23T01:01:45;9.60;;;8.70;;
8488;SDS011;4281;45.772;12.852;2024-03-23T01:04:11;10.70;;;8.90;;
8488;SDS011;4281;45.772;12.852;2024-03-23T01:06:38;9.63;;;8.73;;
8488;SDS011;4281;45.772;12.852;2024-03-23T01:09:04;11.17;;;9.43;;
8488;SDS011;4281;45.772;12.852;2024-03-23T01:11:33;9.17;;;8.33;;
8488;SDS011;4281;45.772;12.852;2024-03-23T01:13:58;9.20;;;8.40;;
8488;SDS011;4281;45.772;12.852;2024-03-23T01:16:25;10.40;;;9.40;;
8488;SDS011;4281;45.772;12.852;2024-03-23T01:18:51;9.70;;;8.80;;
8488;SDS011;4281;45.772;12.852;2024-03-23T01:21:18;10.47;;;9.57;;
8488;SDS011;4281;45.772;12.852;2024-03-23T01:23:44;11.23;;;10.23;;
8488;SDS011;4281;45.772;12.852;2024-03-23T01:26:11;10.40;;;9.43;;
8488;SDS011;4281;45.772;12.852;2024-03-23T01:28:39;10.53;;;9.53;;
8488;SDS011;4281;45.772;12.852;2024-03-23T01:31:06;10.80;;;9.80;;
8488;SDS011;4281;45.772;12.852;2024-03-23T01:33:32;10.93;;;9.93;;
8488;SDS011;4281;45.772;12.852;2024-03-23T01:35:58;10.97;;;9.97;;
8488;SDS011;4281;45.772;12.852;2024-03-23T01:38:24;11.23;;;10.13;;
8488;SDS011;4281;45.772;12.852;2024-03-23T01:40:56;10.70;;;9.73;;
8488;SDS011;4281;45.772;12.852;2024-03-23T01:43:22;10.90;;;9.90;;
8488;SDS011;4281;45.772;12.852;2024-03-23T01:45:50;11.57;;;10.53;;
8488;SDS011;4281;45.772;12.852;2024-03-23T01:48:19;11.63;;;10.53;;
8488;SDS011;4281;45.772;12.852;2024-03-23T01:50:46;11.80;;;10.60;;
8488;SDS011;4281;45.772;12.852;2024-03-23T01:53:12;11.73;;;10.73;;
8488;SDS011;4281;45.772;12.852;2024-03-23T01:55:40;12.07;;;10.97;;
8488;SDS011;4281;45.772;12.852;2024-03-23T01:58:06;11.60;;;10.60;;
8488;SDS011;4281;45.772;12.852;2024-03-23T02:00:33;11.57;;;10.57;;
8488;SDS011;4281;45.772;12.852;2024-03-23T02:03:00;11.30;;;10.30;;
8488;SDS011;4281;45.772;12.852;2024-03-23T02:05:27;11.13;;;10.13;;
8488;SDS011;4281;45.772;12.852;2024-03-23T02:07:53;12.83;;;11.73;;
8488;SDS011;4281;45.772;12.852;2024-03-23T02:10:20;12.70;;;11.60;;
8488;SDS011;4281;45.772;12.852;2024-03-23T02:12:46;13.23;;;12.03;;
8488;SDS011;4281;45.772;12.852;2024-03-23T02:15:13;14.13;;;12.73;;
8488;SDS011;4281;45.772;12.852;2024-03-23T02:17:39;14.33;;;12.93;;
8488;SDS011;4281;45.772;12.852;2024-03-23T02:20:08;14.70;;;13.20;;
8488;SDS011;4281;45.772;12.852;2024-03-23T02:22:35;15.20;;;13.73;;
8488;SDS011;4281;45.772;12.852;2024-03-23T02:25:04;15.60;;;14.10;;
8488;SDS011;4281;45.772;12.852;2024-03-23T02:27:31;16.40;;;14.80;;
8488;SDS011;4281;45.772;12.852;2024-03-23T02:29:58;17.40;;;15.70;;
8488;SDS011;4281;45.772;12.852;2024-03-23T02:32:24;16.53;;;14.80;;
8488;SDS011;4281;45.772;12.852;2024-03-23T02:34:51;17.23;;;15.53;;
8488;SDS011;4281;45.772;12.852;2024-03-23T02:37:17;18.13;;;16.30;;
8488;SDS011;4281;45.772;12.852;2024-03-23T02:39:44;17.03;;;15.33;;
8488;SDS011;4281;45.772;12.852;2024-03-23T02:42:11;14.23;;;12.83;;
8488;SDS011;4281;45.772;12.852;2024-03-23T02:44:38;13.60;;;12.40;;
8488;SDS011;4281;45.772;12.852;2024-03-23T02:47:04;13.03;;;11.83;;
8488;SDS011;4281;45.772;12.852;2024-03-23T02:49:31;13.10;;;11.80;;
8488;SDS011;4281;45.772;12.852;2024-03-23T02:51:57;12.83;;;11.63;;
8488;SDS011;4281;45.772;12.852;2024-03-23T02:54:24;13.27;;;12.03;;
8488;SDS011;4281;45.772;12.852;2024-03-23T02:56:50;15.10;;;13.70;;
8488;SDS011;4281;45.772;12.852;2024-03-23T02:59:18;14.70;;;13.30;;
8488;SDS011;4281;45.772;12.852;2024-03-23T03:01:44;14.23;;;12.83;;
8488;SDS011;4281;45.772;12.852;2024-03-23T03:04:11;14.13;;;12.83;;
8488;SDS011;4281;45.772;12.852;2024-03-23T03:06:36;13.70;;;12.40;;
8488;SDS011;4281;45.772;12.852;2024-03-23T03:09:03;13.87;;;12.50;;
8488;SDS011;4281;45.772;12.852;2024-03-23T03:11:30;14.20;;;12.90;;
8488;SDS011;4281;45.772;12.852;2024-03-23T03:13:57;13.77;;;12.47;;
8488;SDS011;4281;45.772;12.852;2024-03-23T03:16:26;12.50;;;11.30;;
8488;SDS011;4281;45.772;12.852;2024-03-23T03:18:53;12.33;;;11.20;;
8488;SDS011;4281;45.772;12.852;2024-03-23T03:21:19;12.93;;;11.80;;
8488;SDS011;4281;45.772;12.852;2024-03-23T03:23:47;13.23;;;12.03;;
8488;SDS011;4281;45.772;12.852;2024-03-23T03:26:15;14.03;;;12.77;;
8488;SDS011;4281;45.772;12.852;2024-03-23T03:28:42;17.20;;;15.70;;
8488;SDS011;4281;45.772;12.852;2024-03-23T03:31:08;17.47;;;15.87;;
8488;SDS011;4281;45.772;12.852;2024-03-23T03:33:37;17.20;;;15.60;;
8488;SDS011;4281;45.772;12.852;2024-03-23T03:36:03;20.53;;;18.53;;
8488;SDS011;4281;45.772;12.852;2024-03-23T03:38:30;21.47;;;19.37;;
8488;SDS011;4281;45.772;12.852;2024-03-23T03:40:56;22.23;;;20.03;;
8488;SDS011;4281;45.772;12.852;2024-03-23T03:43:24;23.10;;;20.77;;
8488;SDS011;4281;45.772;12.852;2024-03-23T03:45:53;22.27;;;20.07;;
8488;SDS011;4281;45.772;12.852;2024-03-23T03:48:20;21.93;;;19.70;;
8488;SDS011;4281;45.772;12.852;2024-03-23T03:50:47;22.80;;;20.40;;
8488;SDS011;4281;45.772;12.852;2024-03-23T03:53:14;25.13;;;22.23;;
8488;SDS011;4281;45.772;12.852;2024-03-23T03:55:40;28.00;;;23.90;;
8488;SDS011;4281;45.772;12.852;2024-03-23T03:58:07;25.33;;;22.63;;
8488;SDS011;4281;45.772;12.852;2024-03-23T04:00:33;28.87;;;22.87;;
8488;SDS011;4281;45.772;12.852;2024-03-23T04:03:00;29.43;;;24.03;;
8488;SDS011;4281;45.772;12.852;2024-03-23T04:05:26;28.20;;;23.30;;
8488;SDS011;4281;45.772;12.852;2024-03-23T04:07:54;32.30;;;25.60;;
8488;SDS011;4281;45.772;12.852;2024-03-23T04:10:20;32.73;;;24.87;;
8488;SDS011;4281;45.772;12.852;2024-03-23T04:12:47;30.07;;;25.93;;
8488;SDS011;4281;45.772;12.852;2024-03-23T04:15:13;31.73;;;25.67;;
8488;SDS011;4281;45.772;12.852;2024-03-23T04:17:40;32.27;;;24.77;;
8488;SDS011;4281;45.772;12.852;2024-03-23T04:20:08;29.73;;;23.77;;
8488;SDS011;4281;45.772;12.852;2024-03-23T04:22:42;27.13;;;23.83;;
8488;SDS011;4281;45.772;12.852;2024-03-23T04:25:09;27.60;;;22.80;;
8488;SDS011;4281;45.772;12.852;2024-03-23T04:27:36;29.23;;;24.73;;
8488;SDS011;4281;45.772;12.852;2024-03-23T04:30:02;28.37;;;22.83;;
8488;SDS011;4281;45.772;12.852;2024-03-23T04:32:35;26.20;;;22.43;;
8488;SDS011;4281;45.772;12.852;2024-03-23T04:35:01;25.83;;;21.33;;
8488;SDS011;4281;45.772;12.852;2024-03-23T04:37:31;25.17;;;21.70;;
8488;SDS011;4281;45.772;12.852;2024-03-23T04:39:58;23.97;;;21.30;;
8488;SDS011;4281;45.772;12.852;2024-03-23T04:42:27;24.67;;;21.97;;
8488;SDS011;4281;45.772;12.852;2024-03-23T04:44:54;22.40;;;20.00;;
8488;SDS011;4281;45.772;12.852;2024-03-23T04:47:21;24.17;;;20.50;;
8488;SDS011;4281;45.772;12.852;2024-03-23T04:49:47;22.23;;;19.83;;
8488;SDS011;4281;45.772;12.852;2024-03-23T04:52:16;22.47;;;19.80;;
8488;SDS011;4281;45.772;12.852;2024-03-23T04:54:43;22.70;;;19.27;;
8488;SDS011;4281;45.772;12.852;2024-03-23T04:57:10;21.27;;;19.07;;
8488;SDS011;4281;45.772;12.852;2024-03-23T04:59:38;21.10;;;18.90;;
8488;SDS011;4281;45.772;12.852;2024-03-23T05:02:05;20.97;;;18.77;;
8488;SDS011;4281;45.772;12.852;2024-03-23T05:04:31;20.80;;;18.60;;
8488;SDS011;4281;45.772;12.852;2024-03-23T05:06:57;20.57;;;17.80;;
8488;SDS011;4281;45.772;12.852;2024-03-23T05:09:24;19.13;;;17.10;;
8488;SDS011;4281;45.772;12.852;2024-03-23T05:11:55;20.40;;;18.20;;
8488;SDS011;4281;45.772;12.852;2024-03-23T05:14:22;19.47;;;17.47;;
8488;SDS011;4281;45.772;12.852;2024-03-23T05:16:49;19.03;;;17.03;;
8488;SDS011;4281;45.772;12.852;2024-03-23T05:19:16;18.17;;;16.37;;
8488;SDS011;4281;45.772;12.852;2024-03-23T05:21:42;17.63;;;15.87;;
8488;SDS011;4281;45.772;12.852;2024-03-23T05:24:09;18.73;;;16.77;;
8488;SDS011;4281;45.772;12.852;2024-03-23T05:26:34;17.87;;;15.70;;
8488;SDS011;4281;45.772;12.852;2024-03-23T05:29:02;17.73;;;15.93;;
8488;SDS011;4281;45.772;12.852;2024-03-23T05:31:28;17.03;;;15.20;;
8488;SDS011;4281;45.772;12.852;2024-03-23T05:33:57;17.27;;;15.57;;
8488;SDS011;4281;45.772;12.852;2024-03-23T05:36:23;16.90;;;15.30;;
8488;SDS011;4281;45.772;12.852;2024-03-23T05:38:50;18.50;;;16.60;;
8488;SDS011;4281;45.772;12.852;2024-03-23T05:41:16;16.13;;;14.43;;
8488;SDS011;4281;45.772;12.852;2024-03-23T05:43:43;17.40;;;15.60;;
8488;SDS011;4281;45.772;12.852;2024-03-23T05:46:09;17.90;;;16.10;;
8488;SDS011;4281;45.772;12.852;2024-03-23T05:48:36;17.30;;;15.60;;
8488;SDS011;4281;45.772;12.852;2024-03-23T05:51:03;16.67;;;14.97;;
8488;SDS011;4281;45.772;12.852;2024-03-23T05:53:30;16.77;;;15.10;;
8488;SDS011;4281;45.772;12.852;2024-03-23T05:56:00;17.37;;;15.57;;
8488;SDS011;4281;45.772;12.852;2024-03-23T05:58:29;16.07;;;14.47;;
8488;SDS011;4281;45.772;12.852;2024-03-23T06:00:56;17.67;;;15.87;;
8488;SDS011;4281;45.772;12.852;2024-03-23T06:03:24;15.20;;;13.70;;
8488;SDS011;4281;45.772;12.852;2024-03-23T06:05:50;16.03;;;14.47;;
8488;SDS011;4281;45.772;12.852;2024-03-23T06:08:19;16.00;;;14.43;;
8488;SDS011;4281;45.772;12.852;2024-03-23T06:10:45;15.90;;;14.30;;
8488;SDS011;4281;45.772;12.852;2024-03-23T06:13:12;14.87;;;13.40;;
8488;SDS011;4281;45.772;12.852;2024-03-23T06:15:38;13.47;;;12.17;;
8488;SDS011;4281;45.772;12.852;2024-03-23T06:18:05;12.53;;;11.27;;
8488;SDS011;4281;45.772;12.852;2024-03-23T06:20:32;12.63;;;11.33;;
8488;SDS011;4281;45.772;12.852;2024-03-23T06:23:00;13.53;;;12.20;;
8488;SDS011;4281;45.772;12.852;2024-03-23T06:25:27;13.13;;;11.83;;
8488;SDS011;4281;45.772;12.852;2024-03-23T06:27:54;12.53;;;11.23;;
8488;SDS011;4281;45.772;12.852;2024-03-23T06:30:20;12.20;;;11.00;;
8488;SDS011;4281;45.772;12.852;2024-03-23T06:32:47;12.30;;;11.00;;
8488;SDS011;4281;45.772;12.852;2024-03-23T06:35:13;11.83;;;10.70;;
8488;SDS011;4281;45.772;12.852;2024-03-23T06:37:40;10.73;;;9.70;;
8488;SDS011;4281;45.772;12.852;2024-03-23T06:40:07;11.03;;;10.00;;
8488;SDS011;4281;45.772;12.852;2024-03-23T06:42:36;10.40;;;9.43;;
8488;SDS011;4281;45.772;12.852;2024-03-23T06:45:02;10.47;;;9.47;;
8488;SDS011;4281;45.772;12.852;2024-03-23T06:47:30;10.10;;;9.10;;
8488;SDS011;4281;45.772;12.852;2024-03-23T06:49:56;10.67;;;9.13;;
8488;SDS011;4281;45.772;12.852;2024-03-23T06:52:23;9.60;;;8.80;;
8488;SDS011;4281;45.772;12.852;2024-03-23T06:54:49;9.47;;;8.67;;
8488;SDS011;4281;45.772;12.852;2024-03-23T06:57:18;8.93;;;8.10;;
8488;SDS011;4281;45.772;12.852;2024-03-23T06:59:45;10.17;;;9.23;;
8488;SDS011;4281;45.772;12.852;2024-03-23T07:02:12;10.20;;;9.20;;
8488;SDS011;4281;45.772;12.852;2024-03-23T07:04:38;9.80;;;8.90;;
8488;SDS011;4281;45.772;12.852;2024-03-23T07:07:05;10.37;;;9.37;;
8488;SDS011;4281;45.772;12.852;2024-03-23T07:09:31;10.10;;;9.20;;
8488;SDS011;4281;45.772;12.852;2024-03-23T07:11:58;10.20;;;9.20;;
8488;SDS011;4281;45.772;12.852;2024-03-23T07:14:24;9.70;;;8.80;;
8488;SDS011;4281;45.772;12.852;2024-03-23T07:16:52;9.97;;;8.97;;
8488;SDS011;4281;45.772;12.852;2024-03-23T07:19:18;9.63;;;8.73;;
8488;SDS011;4281;45.772;12.852;2024-03-23T07:21:45;9.63;;;8.73;;
8488;SDS011;4281;45.772;12.852;2024-03-23T07:24:13;9.90;;;9.00;;
8488;SDS011;4281;45.772;12.852;2024-03-23T07:26:40;10.50;;;9.40;;
8488;SDS011;4281;45.772;12.852;2024-03-23T07:29:06;10.20;;;9.30;;
8488;SDS011;4281;45.772;12.852;2024-03-23T07:31:33;9.90;;;9.00;;
8488;SDS011;4281;45.772;12.852;2024-03-23T07:34:00;9.70;;;8.80;;
8488;SDS011;4281;45.772;12.852;2024-03-23T07:36:27;10.00;;;9.13;;
8488;SDS011;4281;45.772;12.852;2024-03-23T07:38:53;11.03;;;9.93;;
8488;SDS011;4281;45.772;12.852;2024-03-23T07:41:20;10.53;;;9.53;;
8488;SDS011;4281;45.772;12.852;2024-03-23T07:43:47;10.53;;;9.53;;
8488;SDS011;4281;45.772;12.852;2024-03-23T07:46:14;11.43;;;10.43;;
8488;SDS011;4281;45.772;12.852;2024-03-23T07:48:41;11.37;;;10.27;;
8488;SDS011;4281;45.772;12.852;2024-03-23T07:51:10;11.70;;;10.60;;
8488;SDS011;4281;45.772;12.852;2024-03-23T07:53:37;12.83;;;11.50;;
8488;SDS011;4281;45.772;12.852;2024-03-23T07:56:05;13.00;;;11.80;;
8488;SDS011;4281;45.772;12.852;2024-03-23T07:58:31;12.83;;;11.47;;
8488;SDS011;4281;45.772;12.852;2024-03-23T08:01:03;12.40;;;11.30;;
8488;SDS011;4281;45.772;12.852;2024-03-23T08:03:30;13.60;;;12.40;;
8488;SDS011;4281;45.772;12.852;2024-03-23T08:05:56;13.53;;;12.23;;
8488;SDS011;4281;45.772;12.852;2024-03-23T08:08:24;14.00;;;12.60;;
8488;SDS011;4281;45.772;12.852;2024-03-23T08:10:51;13.10;;;11.90;;
8488;SDS011;4281;45.772;12.852;2024-03-23T08:13:18;13.30;;;12.00;;
8488;SDS011;4281;45.772;12.852;2024-03-23T08:15:44;12.73;;;11.57;;
8488;SDS011;4281;45.772;12.852;2024-03-23T08:18:12;14.33;;;12.83;;
8488;SDS011;4281;45.772;12.852;2024-03-23T08:20:38;14.40;;;13.00;;
8488;SDS011;4281;45.772;12.852;2024-03-23T08:23:05;14.30;;;12.90;;
8488;SDS011;4281;45.772;12.852;2024-03-23T08:25:33;14.80;;;13.40;;
8488;SDS011;4281;45.772;12.852;2024-03-23T08:28:00;15.30;;;13.80;;
8488;SDS011;4281;45.772;12.852;2024-03-23T08:30:26;14.50;;;13.10;;
8488;SDS011;4281;45.772;12.852;2024-03-23T08:32:54;15.80;;;14.20;;
8488;SDS011;4281;45.772;12.852;2024-03-23T08:35:20;14.63;;;13.23;;
8488;SDS011;4281;45.772;12.852;2024-03-23T08:37:46;14.80;;;13.30;;
8488;SDS011;4281;45.772;12.852;2024-03-23T08:40:12;13.77;;;12.47;;
8488;SDS011;4281;45.772;12.852;2024-03-23T08:42:41;13.90;;;12.63;;
8488;SDS011;4281;45.772;12.852;2024-03-23T08:45:07;13.17;;;11.97;;
8488;SDS011;4281;45.772;12.852;2024-03-23T08:47:34;12.97;;;11.77;;
8488;SDS011;4281;45.772;12.852;2024-03-23T08:50:01;13.03;;;11.83;;
8488;SDS011;4281;45.772;12.852;2024-03-23T08:52:28;14.03;;;12.63;;
8488;SDS011;4281;45.772;12.852;2024-03-23T08:54:55;14.00;;;12.70;;
8488;SDS011;4281;45.772;12.852;2024-03-23T08:57:22;12.63;;;11.40;;
8488;SDS011;4281;45.772;12.852;2024-03-23T08:59:49;13.80;;;12.53;;
8488;SDS011;4281;45.772;12.852;2024-03-23T09:02:16;13.43;;;12.13;;
8488;SDS011;4281;45.772;12.852;2024-03-23T09:04:42;13.10;;;11.80;;
8488;SDS011;4281;45.772;12.852;2024-03-23T09:07:10;13.67;;;12.37;;
8488;SDS011;4281;45.772;12.852;2024-03-23T09:09:37;13.13;;;11.93;;
8488;SDS011;4281;45.772;12.852;2024-03-23T09:12:05;12.93;;;11.73;;
8488;SDS011;4281;45.772;12.852;2024-03-23T09:14:31;13.67;;;12.47;;
8488;SDS011;4281;45.772;12.852;2024-03-23T09:16:59;14.90;;;13.50;;
8488;SDS011;4281;45.772;12.852;2024-03-23T09:19:26;13.97;;;12.67;;
8488;SDS011;4281;45.772;12.852;2024-03-23T09:21:53;13.87;;;12.60;;
8488;SDS011;4281;45.772;12.852;2024-03-23T09:24:20;13.37;;;12.17;;
8488;SDS011;4281;45.772;12.852;2024-03-23T09:26:46;13.73;;;12.53;;
8488;SDS011;4281;45.772;12.852;2024-03-23T09:29:13;12.67;;;11.57;;
8488;SDS011;4281;45.772;12.852;2024-03-23T09:31:39;12.83;;;11.63;;
8488;SDS011;4281;45.772;12.852;2024-03-23T09:34:07;11.70;;;10.70;;
8488;SDS011;4281;45.772;12.852;2024-03-23T09:36:33;10.80;;;9.87;;
8488;SDS011;4281;45.772;12.852;2024-03-23T09:39:00;11.07;;;10.07;;
8488;SDS011;4281;45.772;12.852;2024-03-23T09:41:26;11.00;;;9.97;;
8488;SDS011;4281;45.772;12.852;2024-03-23T09:43:53;10.60;;;9.60;;
8488;SDS011;4281;45.772;12.852;2024-03-23T09:46:19;11.47;;;10.27;;
8488;SDS011;4281;45.772;12.852;2024-03-23T09:48:46;10.93;;;9.83;;
8488;SDS011;4281;45.772;12.852;2024-03-23T09:51:13;10.10;;;9.17;;
8488;SDS011;4281;45.772;12.852;2024-03-23T09:53:40;11.00;;;10.07;;
8488;SDS011;4281;45.772;12.852;2024-03-23T09:56:07;11.30;;;10.20;;
8488;SDS011;4281;45.772;12.852;2024-03-23T09:58:34;11.93;;;10.83;;
8488;SDS011;4281;45.772;12.852;2024-03-23T10:01:01;10.97;;;9.97;;
8488;SDS011;4281;45.772;12.852;2024-03-23T10:03:28;11.47;;;10.33;;
8488;SDS011;4281;45.772;12.852;2024-03-23T10:06:00;10.50;;;9.60;;
8488;SDS011;4281;45.772;12.852;2024-03-23T10:08:29;10.83;;;9.87;;
8488;SDS011;4281;45.772;12.852;2024-03-23T10:10:56;10.33;;;9.33;;
8488;SDS011;4281;45.772;12.852;2024-03-23T10:13:26;10.10;;;9.20;;
8488;SDS011;4281;45.772;12.852;2024-03-23T10:15:55;11.10;;;9.90;;
8488;SDS011;4281;45.772;12.852;2024-03-23T10:18:23;10.40;;;9.30;;
8488;SDS011;4281;45.772;12.852;2024-03-23T10:21:06;8.97;;;8.17;;
8488;SDS011;4281;45.772;12.852;2024-03-23T10:23:35;7.30;;;6.60;;
8488;SDS011;4281;45.772;12.852;2024-03-23T10:26:16;7.30;;;6.63;;
8488;SDS011;4281;45.772;12.852;2024-03-23T10:31:33;5.93;;;5.40;;
8488;SDS011;4281;45.772;12.852;2024-03-23T10:34:02;5.97;;;5.37;;
8488;SDS011;4281;45.772;12.852;2024-03-23T10:36:28;4.93;;;4.53;;
8488;SDS011;4281;45.772;12.852;2024-03-23T10:38:57;5.20;;;4.70;;
8488;SDS011;4281;45.772;12.852;2024-03-23T10:41:24;5.60;;;5.10;;
8488;SDS011;4281;45.772;12.852;2024-03-23T10:43:52;5.57;;;4.97;;
8488;SDS011;4281;45.772;12.852;2024-03-23T10:46:19;5.53;;;5.03;;
8488;SDS011;4281;45.772;12.852;2024-03-23T10:48:46;5.33;;;4.83;;
8488;SDS011;4281;45.772;12.852;2024-03-23T10:51:12;6.10;;;5.60;;
8488;SDS011;4281;45.772;12.852;2024-03-23T10:53:40;6.80;;;6.20;;
8488;SDS011;4281;45.772;12.852;2024-03-23T10:56:07;6.63;;;6.03;;
8488;SDS011;4281;45.772;12.852;2024-03-23T10:58:37;5.90;;;5.40;;
8488;SDS011;4281;45.772;12.852;2024-03-23T11:01:04;5.80;;;5.30;;
8488;SDS011;4281;45.772;12.852;2024-03-23T11:03:34;5.10;;;4.63;;
8488;SDS011;4281;45.772;12.852;2024-03-23T11:06:02;5.23;;;4.73;;
8488;SDS011;4281;45.772;12.852;2024-03-23T11:08:30;4.83;;;4.40;;
8488;SDS011;4281;45.772;12.852;2024-03-23T11:13:49;4.90;;;4.43;;
8488;SDS011;4281;45.772;12.852;2024-03-23T11:16:17;3.70;;;3.40;;
8488;SDS011;4281;45.772;12.852;2024-03-23T11:18:47;3.53;;;3.20;;
8488;SDS011;4281;45.772;12.852;2024-03-23T11:24:13;3.90;;;3.50;;
8488;SDS011;4281;45.772;12.852;2024-03-23T11:26:41;3.80;;;3.40;;
8488;SDS011;4281;45.772;12.852;2024-03-23T11:29:11;3.40;;;3.10;;
8488;SDS011;4281;45.772;12.852;2024-03-23T11:31:38;3.53;;;3.20;;
8488;SDS011;4281;45.772;12.852;2024-03-23T11:34:04;3.70;;;3.40;;
8488;SDS011;4281;45.772;12.852;2024-03-23T11:36:31;3.63;;;3.33;;
8488;SDS011;4281;45.772;12.852;2024-03-23T11:38:57;4.17;;;3.57;;
8488;SDS011;4281;45.772;12.852;2024-03-23T11:41:24;5.00;;;4.57;;
8488;SDS011;4281;45.772;12.852;2024-03-23T11:43:50;4.80;;;4.30;;
8488;SDS011;4281;45.772;12.852;2024-03-23T11:46:23;4.33;;;4.03;;
8488;SDS011;4281;45.772;12.852;2024-03-23T11:48:49;4.83;;;4.13;;
8488;SDS011;4281;45.772;12.852;2024-03-23T11:51:16;5.63;;;5.13;;
8488;SDS011;4281;45.772;12.852;2024-03-23T11:53:42;5.43;;;4.93;;
8488;SDS011;4281;45.772;12.852;2024-03-23T11:56:09;5.83;;;5.33;;
8488;SDS011;4281;45.772;12.852;2024-03-23T11:58:35;6.97;;;6.33;;
8488;SDS011;4281;45.772;12.852;2024-03-23T12:01:02;6.97;;;6.27;;
8488;SDS011;4281;45.772;12.852;2024-03-23T12:03:30;6.63;;;6.03;;
8488;SDS011;4281;45.772;12.852;2024-03-23T12:05:59;5.97;;;5.40;;
8488;SDS011;4281;45.772;12.852;2024-03-23T12:08:28;6.67;;;5.97;;
8488;SDS011;4281;45.772;12.852;2024-03-23T12:11:04;6.10;;;5.60;;
8488;SDS011;4281;45.772;12.852;2024-03-23T12:13:31;8.30;;;7.50;;
8488;SDS011;4281;45.772;12.852;2024-03-23T12:16:08;9.37;;;8.47;;
8488;SDS011;4281;45.772;12.852;2024-03-23T12:18:36;9.83;;;8.93;;
8488;SDS011;4281;45.772;12.852;2024-03-23T12:21:04;10.63;;;9.57;;
8488;SDS011;4281;45.772;12.852;2024-03-23T12:23:29;11.60;;;10.40;;
8488;SDS011;4281;45.772;12.852;2024-03-23T12:25:57;11.17;;;10.10;;
8488;SDS011;4281;45.772;12.852;2024-03-23T12:28:23;12.93;;;11.73;;
8488;SDS011;4281;45.772;12.852;2024-03-23T12:30:51;13.47;;;12.10;;
8488;SDS011;4281;45.772;12.852;2024-03-23T12:33:17;14.70;;;13.23;;
8488;SDS011;4281;45.772;12.852;2024-03-23T12:35:45;14.37;;;12.87;;
8488;SDS011;4281;45.772;12.852;2024-03-23T12:38:11;13.00;;;11.80;;
8488;SDS011;4281;45.772;12.852;2024-03-23T12:40:38;13.33;;;12.03;;
8488;SDS011;4281;45.772;12.852;2024-03-23T12:43:05;14.20;;;12.80;;
8488;SDS011;4281;45.772;12.852;2024-03-23T12:45:30;13.30;;;11.93;;
8488;SDS011;4281;45.772;12.852;2024-03-23T12:47:57;13.40;;;12.10;;
8488;SDS011;4281;45.772;12.852;2024-03-23T12:50:23;14.47;;;13.00;;
8488;SDS011;4281;45.772;12.852;2024-03-23T12:52:51;13.17;;;11.87;;
8488;SDS011;4281;45.772;12.852;2024-03-23T12:55:17;13.10;;;12.00;;
8488;SDS011;4281;45.772;12.852;2024-03-23T12:57:45;13.03;;;11.60;;
8488;SDS011;4281;45.772;12.852;2024-03-23T13:00:12;11.93;;;10.83;;
8488;SDS011;4281;45.772;12.852;2024-03-23T13:02:41;13.50;;;12.27;;
8488;SDS011;4281;45.772;12.852;2024-03-23T13:05:07;14.10;;;12.70;;
8488;SDS011;4281;45.772;12.852;2024-03-23T13:07:35;14.87;;;13.47;;
8488;SDS011;4281;45.772;12.852;2024-03-23T13:10:03;14.00;;;12.60;;
8488;SDS011;4281;45.772;12.852;2024-03-23T13:12:30;15.50;;;13.90;;
8488;SDS011;4281;45.772;12.852;2024-03-23T13:14:57;15.43;;;14.03;;
8488;SDS011;4281;45.772;12.852;2024-03-23T13:17:24;13.30;;;12.10;;
8488;SDS011;4281;45.772;12.852;2024-03-23T13:19:51;13.10;;;11.80;;
8488;SDS011;4281;45.772;12.852;2024-03-23T13:22:18;12.87;;;11.67;;
8488;SDS011;4281;45.772;12.852;2024-03-23T13:24:43;12.63;;;11.43;;
8488;SDS011;4281;45.772;12.852;2024-03-23T13:27:12;11.07;;;9.97;;
8488;SDS011;4281;45.772;12.852;2024-03-23T13:29:38;11.20;;;10.10;;
8488;SDS011;4281;45.772;12.852;2024-03-23T13:32:05;11.40;;;10.40;;
8488;SDS011;4281;45.772;12.852;2024-03-23T13:34:32;11.43;;;10.33;;
8488;SDS011;4281;45.772;12.852;2024-03-23T13:37:00;11.60;;;10.40;;
8488;SDS011;4281;45.772;12.852;2024-03-23T13:39:26;10.90;;;9.90;;
8488;SDS011;4281;45.772;12.852;2024-03-23T13:41:54;10.73;;;9.67;;
8488;SDS011;4281;45.772;12.852;2024-03-23T13:44:21;12.10;;;11.00;;
8488;SDS011;4281;45.772;12.852;2024-03-23T13:46:49;12.17;;;10.97;;
8488;SDS011;4281;45.772;12.852;2024-03-23T13:49:24;12.00;;;10.80;;
8488;SDS011;4281;45.772;12.852;2024-03-23T13:51:51;11.23;;;10.13;;
8488;SDS011;4281;45.772;12.852;2024-03-23T13:54:18;12.23;;;11.07;;
8488;SDS011;4281;45.772;12.852;2024-03-23T13:56:44;11.73;;;10.50;;
8488;SDS011;4281;45.772;12.852;2024-03-23T13:59:10;11.93;;;10.63;;
8488;SDS011;4281;45.772;12.852;2024-03-23T14:01:38;12.43;;;10.80;;
8488;SDS011;4281;45.772;12.852;2024-03-23T14:04:04;13.10;;;11.67;;
8488;SDS011;4281;45.772;12.852;2024-03-23T14:06:31;12.20;;;11.00;;
8488;SDS011;4281;45.772;12.852;2024-03-23T14:08:57;12.13;;;10.93;;
8488;SDS011;4281;45.772;12.852;2024-03-23T14:11:24;12.30;;;11.20;;
8488;SDS011;4281;45.772;12.852;2024-03-23T14:13:52;12.77;;;11.47;;
8488;SDS011;4281;45.772;12.852;2024-03-23T14:16:20;12.27;;;11.07;;
8488;SDS011;4281;45.772;12.852;2024-03-23T14:18:48;11.97;;;10.87;;
8488;SDS011;4281;45.772;12.852;2024-03-23T14:21:14;11.80;;;10.70;;
8488;SDS011;4281;45.772;12.852;2024-03-23T14:23:40;10.80;;;9.80;;
8488;SDS011;4281;45.772;12.852;2024-03-23T14:26:07;11.37;;;10.27;;
8488;SDS011;4281;45.772;12.852;2024-03-23T14:28:33;9.93;;;9.03;;
8488;SDS011;4281;45.772;12.852;2024-03-23T14:31:00;13.73;;;12.30;;
8488;SDS011;4281;45.772;12.852;2024-03-23T14:33:26;20.97;;;16.77;;
8488;SDS011;4281;45.772;12.852;2024-03-23T14:35:54;15.17;;;13.67;;
8488;SDS011;4281;45.772;12.852;2024-03-23T14:38:21;15.50;;;13.90;;
8488;SDS011;4281;45.772;12.852;2024-03-23T14:40:48;15.13;;;13.73;;
8488;SDS011;4281;45.772;12.852;2024-03-23T14:43:14;14.87;;;13.47;;
8488;SDS011;4281;45.772;12.852;2024-03-23T14:45:48;16.10;;;14.10;;
8488;SDS011;4281;45.772;12.852;2024-03-23T14:48:34;14.97;;;13.50;;
8488;SDS011;4281;45.772;12.852;2024-03-23T14:51:02;14.33;;;12.97;;
8488;SDS011;4281;45.772;12.852;2024-03-23T14:53:30;14.77;;;13.20;;
8488;SDS011;4281;45.772;12.852;2024-03-23T14:55:57;14.03;;;12.60;;
8488;SDS011;4281;45.772;12.852;2024-03-23T14:58:25;14.60;;;13.20;;
8488;SDS011;4281;45.772;12.852;2024-03-23T15:00:52;14.60;;;13.10;;
8488;SDS011;4281;45.772;12.852;2024-03-23T15:03:18;15.40;;;13.67;;
8488;SDS011;4281;45.772;12.852;2024-03-23T15:05:52;15.50;;;14.00;;
8488;SDS011;4281;45.772;12.852;2024-03-23T15:08:20;14.97;;;13.57;;
8488;SDS011;4281;45.772;12.852;2024-03-23T15:10:46;14.07;;;12.77;;
8488;SDS011;4281;45.772;12.852;2024-03-23T15:13:12;14.67;;;13.27;;
8488;SDS011;4281;45.772;12.852;2024-03-23T15:15:40;14.80;;;13.40;;
8488;SDS011;4281;45.772;12.852;2024-03-23T15:18:06;14.40;;;13.00;;
8488;SDS011;4281;45.772;12.852;2024-03-23T15:20:33;16.37;;;14.70;;
8488;SDS011;4281;45.772;12.852;2024-03-23T15:23:01;17.60;;;15.83;;
8488;SDS011;4281;45.772;12.852;2024-03-23T15:25:30;16.50;;;14.90;;
8488;SDS011;4281;45.772;12.852;2024-03-23T15:27:56;18.43;;;16.57;;
8488;SDS011;4281;45.772;12.852;2024-03-23T15:30:24;15.60;;;14.10;;
8488;SDS011;4281;45.772;12.852;2024-03-23T15:32:50;14.67;;;13.27;;
8488;SDS011;4281;45.772;12.852;2024-03-23T15:35:17;13.47;;;12.17;;
8488;SDS011;4281;45.772;12.852;2024-03-23T15:37:44;12.83;;;11.53;;
8488;SDS011;4281;45.772;12.852;2024-03-23T15:40:11;11.37;;;10.27;;
8488;SDS011;4281;45.772;12.852;2024-03-23T15:42:40;12.10;;;10.43;;